Terminal Aerodrome Forecast
Issued by NWS Louisville, KY

Home | Current Version | Previous Version | Text Only | Print | Product List | Glossary On
Versions: 1 2 3 4 5 6 7 8 9 10 11 12 13 14
000
FTUS43 KLMK 221741
TAFLEX
TAF
KLEX 221741Z 2218/2318 17012G23KT P6SM FEW090 FEW250
     FM230000 15010KT P6SM FEW080 SCT200
     FM230500 16009KT P6SM VCSH SCT045 BKN100
     FM230900 15008KT P6SM -SHRA SCT025 OVC045
     FM231000 17007KT 5SM -SHRA SCT008 BKN015
     FM231200 14007KT 5SM -SHRA BKN008
     FM231600 22009KT P6SM -SHRA SCT008 BKN010=

USA.gov is the U.S. government's official web portal to all federal, state and local government web resources and services.